UAE420 VABB-OAKB
Flight info
| Callsign | UAE420 |
|---|---|
| Flight time | 2h 26m |
| Altitude | 35000 |
| Route | ANOLI2A ISRIS W10N APANO G451 AAE Z8 VIKIT P628 RK G202 ZB G325 SAJAN M875 KODAD |
| Aircraft | B77W/H-SDE1E2E3FGHIJ2J3J4J5M1RWXY/LB1D1 |
Departure
| Time | 2026-05-08 21:40 |
|---|---|
| Airport | Chhatrapati Shivaji Maharaj International Airport (VABB) |
Arrival
| Time | 2026-05-09 00:06 |
|---|---|
| Airport | Kabul International Airport (OAKB) |
| Time | Latitude | Longitude | Altitude | Speed | Heading |
|---|---|---|---|---|---|
| 2026-05-08 20:37 | 19.09477 | 72.87076 | 43 ft | 0 kts | 134° |
| 2026-05-08 21:23 | 19.09485 | 72.87067 | 43 ft | 3 kts | 133° |
| 2026-05-08 21:23 | 19.09503 | 72.87047 | 43 ft | 3 kts | 134° |
| 2026-05-08 21:23 | 19.09521 | 72.87031 | 43 ft | 3 kts | 153° |
| 2026-05-08 21:24 | 19.09540 | 72.87026 | 44 ft | 2 kts | 182° |
| 2026-05-08 21:24 | 19.09556 | 72.87032 | 44 ft | 2 kts | 210° |
| 2026-05-08 21:24 | 19.09561 | 72.87035 | 44 ft | 0 kts | 211° |
| 2026-05-08 21:29 | 19.09560 | 72.87034 | 44 ft | 0 kts | 211° |
| 2026-05-08 21:30 | 19.09536 | 72.87013 | 43 ft | 9 kts | 225° |
| 2026-05-08 21:30 | 19.09481 | 72.86952 | 42 ft | 11 kts | 227° |
| 2026-05-08 21:30 | 19.09428 | 72.86892 | 42 ft | 10 kts | 218° |
| 2026-05-08 21:30 | 19.09356 | 72.86896 | 40 ft | 13 kts | 147° |
| 2026-05-08 21:31 | 19.09290 | 72.86961 | 39 ft | 12 kts | 135° |
| 2026-05-08 21:31 | 19.09234 | 72.87022 | 38 ft | 11 kts | 130° |
| 2026-05-08 21:31 | 19.09181 | 72.87089 | 37 ft | 13 kts | 127° |
| 2026-05-08 21:31 | 19.09149 | 72.87178 | 36 ft | 10 kts | 101° |
| 2026-05-08 21:32 | 19.09131 | 72.87241 | 36 ft | 9 kts | 127° |
| 2026-05-08 21:32 | 19.09079 | 72.87272 | 35 ft | 8 kts | 150° |
| 2026-05-08 21:32 | 19.09054 | 72.87330 | 34 ft | 11 kts | 91° |
| 2026-05-08 21:32 | 19.09054 | 72.87442 | 34 ft | 16 kts | 90° |
| 2026-05-08 21:33 | 19.09055 | 72.87571 | 35 ft | 17 kts | 89° |
| 2026-05-08 21:33 | 19.09057 | 72.87702 | 35 ft | 18 kts | 89° |
| 2026-05-08 21:33 | 19.09059 | 72.87831 | 37 ft | 17 kts | 89° |
| 2026-05-08 21:33 | 19.09061 | 72.87944 | 40 ft | 13 kts | 89° |
| 2026-05-08 21:34 | 19.09061 | 72.88018 | 40 ft | 6 kts | 99° |
| 2026-05-08 21:34 | 19.09030 | 72.88047 | 40 ft | 5 kts | 161° |
| 2026-05-08 21:34 | 19.09016 | 72.88050 | 40 ft | 0 kts | 178° |
| 2026-05-08 21:38 | 19.08989 | 72.88051 | 40 ft | 7 kts | 178° |
| 2026-05-08 21:38 | 19.08943 | 72.88048 | 40 ft | 5 kts | 198° |
| 2026-05-08 21:38 | 19.08910 | 72.88026 | 40 ft | 6 kts | 221° |
| 2026-05-08 21:39 | 19.08889 | 72.87976 | 39 ft | 9 kts | 263° |
| 2026-05-08 21:39 | 19.08886 | 72.87841 | 37 ft | 41 kts | 269° |
| 2026-05-08 21:39 | 19.08877 | 72.87279 | 32 ft | 110 kts | 269° |
| 2026-05-08 21:39 | 19.08864 | 72.86253 | 39 ft | 169 kts | 269° |
| 2026-05-08 21:40 | 19.08854 | 72.84915 | 388 ft | 189 kts | 270° |
| 2026-05-08 21:40 | 19.08832 | 72.83489 | 1094 ft | 199 kts | 270° |
| 2026-05-08 21:40 | 19.08781 | 72.81998 | 1500 ft | 215 kts | 271° |
| 2026-05-08 21:41 | 19.08770 | 72.78517 | 2279 ft | 248 kts | 274° |
| 2026-05-08 21:41 | 19.08790 | 72.76688 | 2910 ft | 255 kts | 274° |
| 2026-05-08 21:41 | 19.08795 | 72.74760 | 3427 ft | 267 kts | 274° |
| 2026-05-08 21:41 | 19.09008 | 72.72816 | 4045 ft | 267 kts | 294° |
| 2026-05-08 21:42 | 19.10002 | 72.71220 | 4624 ft | 265 kts | 323° |
| 2026-05-08 21:42 | 19.11632 | 72.70348 | 5213 ft | 264 kts | 352° |
| 2026-05-08 21:42 | 19.13446 | 72.70425 | 5907 ft | 262 kts | 19° |
| 2026-05-08 21:42 | 19.15017 | 72.71379 | 6561 ft | 265 kts | 40° |
| 2026-05-08 21:43 | 19.16394 | 72.72662 | 7199 ft | 269 kts | 42° |
| 2026-05-08 21:43 | 19.17915 | 72.73835 | 7800 ft | 273 kts | 26° |
| 2026-05-08 21:43 | 19.19779 | 72.74359 | 8356 ft | 281 kts | 8° |
| 2026-05-08 21:43 | 19.21747 | 72.74405 | 8934 ft | 288 kts | 1° |
| 2026-05-08 21:44 | 19.23772 | 72.74302 | 9498 ft | 294 kts | 360° |
| 2026-05-08 21:44 | 19.25814 | 72.74181 | 9763 ft | 297 kts | 359° |
| 2026-05-08 21:44 | 19.27887 | 72.74060 | 9797 ft | 297 kts | 359° |
| 2026-05-08 21:44 | 19.30042 | 72.73998 | 9812 ft | 322 kts | 5° |
| 2026-05-08 21:45 | 19.32360 | 72.74271 | 9947 ft | 343 kts | 10° |
| 2026-05-08 21:45 | 19.34905 | 72.74666 | 10297 ft | 358 kts | 10° |
| 2026-05-08 21:45 | 19.37425 | 72.75058 | 10639 ft | 373 kts | 10° |
| 2026-05-08 21:45 | 19.40057 | 72.75464 | 11029 ft | 385 kts | 10° |
| 2026-05-08 21:46 | 19.42739 | 72.75877 | 11613 ft | 392 kts | 9° |
| 2026-05-08 21:46 | 19.45428 | 72.76291 | 12265 ft | 396 kts | 9° |
| 2026-05-08 21:46 | 19.48167 | 72.76712 | 12944 ft | 401 kts | 9° |
| 2026-05-08 21:46 | 19.50954 | 72.77140 | 13635 ft | 405 kts | 9° |
| 2026-05-08 21:47 | 19.53774 | 72.77574 | 14460 ft | 405 kts | 9° |
| 2026-05-08 21:47 | 19.57084 | 72.78083 | 15477 ft | 404 kts | 8° |
| 2026-05-08 21:47 | 19.60332 | 72.78584 | 16396 ft | 405 kts | 8° |
| 2026-05-08 21:47 | 19.63630 | 72.79091 | 17266 ft | 407 kts | 8° |
| 2026-05-08 21:48 | 19.66934 | 72.79600 | 18028 ft | 410 kts | 8° |
| 2026-05-08 21:48 | 19.70246 | 72.80110 | 18652 ft | 416 kts | 7° |
| 2026-05-08 21:48 | 19.73642 | 72.80634 | 19264 ft | 421 kts | 7° |
| 2026-05-08 21:48 | 19.77033 | 72.81156 | 19868 ft | 426 kts | 7° |
| 2026-05-08 21:49 | 19.80515 | 72.81693 | 20464 ft | 430 kts | 7° |
| 2026-05-08 21:49 | 19.83977 | 72.82227 | 21000 ft | 434 kts | 7° |
| 2026-05-08 21:49 | 19.87543 | 72.82778 | 21528 ft | 438 kts | 6° |
| 2026-05-08 21:49 | 19.91123 | 72.83331 | 22071 ft | 441 kts | 6° |
| 2026-05-08 21:50 | 19.94693 | 72.83883 | 22635 ft | 445 kts | 6° |
| 2026-05-08 21:50 | 19.97928 | 72.84383 | 23130 ft | 448 kts | 6° |
| 2026-05-08 21:50 | 20.01029 | 72.84862 | 23624 ft | 450 kts | 6° |
| 2026-05-08 21:50 | 20.04132 | 72.85342 | 24114 ft | 452 kts | 6° |
| 2026-05-08 21:51 | 20.07294 | 72.85832 | 24609 ft | 455 kts | 6° |
| 2026-05-08 21:51 | 20.10427 | 72.86295 | 25059 ft | 457 kts | 5° |
| 2026-05-08 21:51 | 20.13605 | 72.86697 | 25545 ft | 459 kts | 5° |
| 2026-05-08 21:51 | 20.16783 | 72.87095 | 26035 ft | 461 kts | 5° |
| 2026-05-08 21:52 | 20.19968 | 72.87496 | 26510 ft | 464 kts | 5° |
| 2026-05-08 21:52 | 20.23191 | 72.87904 | 26979 ft | 466 kts | 5° |
| 2026-05-08 21:52 | 20.26417 | 72.88313 | 27421 ft | 469 kts | 5° |
| 2026-05-08 21:52 | 20.29677 | 72.88728 | 27860 ft | 471 kts | 5° |
| 2026-05-08 21:53 | 20.32927 | 72.89143 | 28287 ft | 474 kts | 5° |
| 2026-05-08 21:53 | 20.36210 | 72.89562 | 28703 ft | 477 kts | 5° |
| 2026-05-08 21:53 | 20.39525 | 72.89986 | 29115 ft | 480 kts | 5° |
| 2026-05-08 21:53 | 20.42842 | 72.90410 | 29616 ft | 481 kts | 5° |
| 2026-05-08 21:54 | 20.46169 | 72.90837 | 30167 ft | 480 kts | 5° |
| 2026-05-08 21:54 | 20.49487 | 72.91262 | 30708 ft | 480 kts | 5° |
| 2026-05-08 21:54 | 20.52805 | 72.91688 | 31238 ft | 480 kts | 5° |
| 2026-05-08 21:54 | 20.56128 | 72.92115 | 31718 ft | 480 kts | 5° |
| 2026-05-08 21:55 | 20.59424 | 72.92538 | 32173 ft | 481 kts | 5° |
| 2026-05-08 21:55 | 20.62748 | 72.92965 | 32657 ft | 480 kts | 5° |
| 2026-05-08 21:55 | 20.66054 | 72.93391 | 33231 ft | 478 kts | 4° |
| 2026-05-08 21:56 | 20.72675 | 72.94241 | 33788 ft | 481 kts | 4° |
| 2026-05-08 21:56 | 20.76209 | 72.94696 | 33949 ft | 484 kts | 4° |
| 2026-05-08 21:56 | 20.79906 | 72.94965 | 34441 ft | 479 kts | 359° |
| 2026-05-08 21:56 | 20.83439 | 72.95086 | 34784 ft | 479 kts | 359° |
| 2026-05-08 21:57 | 20.87056 | 72.95213 | 34785 ft | 478 kts | 359° |
| 2026-05-08 21:57 | 20.94075 | 72.95484 | 34786 ft | 476 kts | 359° |
| 2026-05-08 21:58 | 21.00685 | 72.95756 | 34774 ft | 473 kts | 359° |
| 2026-05-08 21:58 | 21.07328 | 72.96038 | 34774 ft | 473 kts | 360° |
| 2026-05-08 21:59 | 21.14013 | 72.96326 | 34772 ft | 474 kts | 360° |
| 2026-05-08 21:59 | 21.20670 | 72.96617 | 34774 ft | 472 kts | 359° |
| 2026-05-08 22:00 | 21.27453 | 72.96915 | 34774 ft | 473 kts | 360° |
| 2026-05-08 22:00 | 21.34099 | 72.97208 | 34779 ft | 473 kts | 360° |
| 2026-05-08 22:01 | 21.40728 | 72.97500 | 34783 ft | 472 kts | 360° |
| 2026-05-08 22:01 | 21.47346 | 72.97793 | 34786 ft | 472 kts | 359° |
| 2026-05-08 22:02 | 21.54066 | 72.98090 | 34788 ft | 471 kts | 359° |
| 2026-05-08 22:02 | 21.60569 | 72.97746 | 34783 ft | 465 kts | 347° |
| 2026-05-08 22:03 | 21.66968 | 72.96267 | 34789 ft | 467 kts | 345° |
| 2026-05-08 22:03 | 21.73403 | 72.94742 | 34785 ft | 464 kts | 345° |
| 2026-05-08 22:04 | 21.79780 | 72.93231 | 34783 ft | 464 kts | 345° |
| 2026-05-08 22:04 | 21.86129 | 72.91727 | 34783 ft | 464 kts | 345° |
| 2026-05-08 22:05 | 21.93009 | 72.90095 | 34782 ft | 464 kts | 345° |
| 2026-05-08 22:05 | 21.99299 | 72.88604 | 34776 ft | 464 kts | 345° |
| 2026-05-08 22:06 | 22.05710 | 72.87082 | 34768 ft | 465 kts | 345° |
| 2026-05-08 22:06 | 22.12055 | 72.85574 | 34771 ft | 463 kts | 345° |
| 2026-05-08 22:07 | 22.18830 | 72.83963 | 34770 ft | 462 kts | 345° |
| 2026-05-08 22:07 | 22.25245 | 72.82436 | 34773 ft | 461 kts | 345° |
| 2026-05-08 22:08 | 22.31602 | 72.80921 | 34778 ft | 460 kts | 345° |
| 2026-05-08 22:08 | 22.38056 | 72.79382 | 34780 ft | 461 kts | 345° |
| 2026-05-08 22:09 | 22.44451 | 72.77856 | 34781 ft | 460 kts | 345° |
| 2026-05-08 22:09 | 22.50799 | 72.76339 | 34783 ft | 459 kts | 345° |
| 2026-05-08 22:10 | 22.57203 | 72.74807 | 34786 ft | 460 kts | 345° |
| 2026-05-08 22:10 | 22.63636 | 72.73267 | 34787 ft | 459 kts | 345° |
| 2026-05-08 22:11 | 22.69912 | 72.71763 | 34787 ft | 459 kts | 345° |
| 2026-05-08 22:11 | 22.76216 | 72.70252 | 34785 ft | 458 kts | 345° |
| 2026-05-08 22:12 | 22.82579 | 72.68723 | 34787 ft | 459 kts | 345° |
| 2026-05-08 22:12 | 22.88817 | 72.67225 | 34788 ft | 458 kts | 345° |
| 2026-05-08 22:13 | 22.95083 | 72.65717 | 34789 ft | 458 kts | 345° |
| 2026-05-08 22:13 | 23.01398 | 72.64197 | 34788 ft | 456 kts | 345° |
| 2026-05-08 22:14 | 23.07653 | 72.62691 | 34787 ft | 458 kts | 346° |
| 2026-05-08 22:14 | 23.13898 | 72.61311 | 34796 ft | 456 kts | 346° |
| 2026-05-08 22:15 | 23.20221 | 72.59925 | 34801 ft | 456 kts | 346° |
| 2026-05-08 22:15 | 23.26416 | 72.58562 | 34805 ft | 457 kts | 346° |
| 2026-05-08 22:16 | 23.33145 | 72.57079 | 34801 ft | 455 kts | 346° |
| 2026-05-08 22:16 | 23.39381 | 72.55700 | 34804 ft | 455 kts | 346° |
| 2026-05-08 22:17 | 23.45749 | 72.54291 | 34805 ft | 454 kts | 346° |
| 2026-05-08 22:17 | 23.52284 | 72.52843 | 34801 ft | 453 kts | 346° |
| 2026-05-08 22:18 | 23.59372 | 72.51270 | 34802 ft | 454 kts | 346° |
| 2026-05-08 22:18 | 23.66383 | 72.49713 | 34798 ft | 453 kts | 346° |
| 2026-05-08 22:19 | 23.73508 | 72.48128 | 34798 ft | 451 kts | 346° |
| 2026-05-08 22:19 | 23.80607 | 72.46549 | 34796 ft | 452 kts | 346° |
| 2026-05-08 22:20 | 23.87260 | 72.45066 | 34798 ft | 451 kts | 346° |
| 2026-05-08 22:20 | 23.94307 | 72.43494 | 34800 ft | 450 kts | 346° |
| 2026-05-08 22:21 | 24.00438 | 72.42125 | 34800 ft | 452 kts | 346° |
| 2026-05-08 22:21 | 24.06592 | 72.40757 | 34796 ft | 450 kts | 346° |
| 2026-05-08 22:22 | 24.12760 | 72.39394 | 34815 ft | 453 kts | 346° |
| 2026-05-08 22:22 | 24.18920 | 72.38032 | 34821 ft | 450 kts | 346° |
| 2026-05-08 22:23 | 24.25670 | 72.36536 | 34828 ft | 452 kts | 346° |
| 2026-05-08 22:23 | 24.31793 | 72.35178 | 34832 ft | 450 kts | 346° |
| 2026-05-08 22:24 | 24.38168 | 72.33763 | 34841 ft | 451 kts | 345° |
| 2026-05-08 22:24 | 24.44990 | 72.32247 | 34840 ft | 449 kts | 345° |
| 2026-05-08 22:25 | 24.52082 | 72.30669 | 34840 ft | 450 kts | 345° |
| 2026-05-08 22:25 | 24.59081 | 72.29110 | 34843 ft | 451 kts | 345° |
| 2026-05-08 22:26 | 24.65222 | 72.27741 | 34841 ft | 449 kts | 345° |
| 2026-05-08 22:26 | 24.71382 | 72.26365 | 34838 ft | 449 kts | 345° |
| 2026-05-08 22:27 | 24.77498 | 72.24998 | 34849 ft | 451 kts | 345° |
| 2026-05-08 22:27 | 24.83646 | 72.23633 | 34834 ft | 450 kts | 345° |
| 2026-05-08 22:28 | 24.90412 | 72.22132 | 34816 ft | 450 kts | 345° |
| 2026-05-08 22:28 | 24.97459 | 72.20568 | 34820 ft | 449 kts | 345° |
| 2026-05-08 22:29 | 25.04523 | 72.19475 | 34805 ft | 455 kts | 350° |
| 2026-05-08 22:29 | 25.11521 | 72.18688 | 34823 ft | 450 kts | 350° |
| 2026-05-08 22:30 | 25.18250 | 72.17927 | 34825 ft | 451 kts | 350° |
| 2026-05-08 22:30 | 25.24916 | 72.17171 | 34826 ft | 450 kts | 350° |
| 2026-05-08 22:31 | 25.31474 | 72.16425 | 34821 ft | 447 kts | 350° |
| 2026-05-08 22:31 | 25.38269 | 72.15649 | 34821 ft | 450 kts | 349° |
| 2026-05-08 22:32 | 25.44705 | 72.14915 | 34824 ft | 449 kts | 350° |
| 2026-05-08 22:32 | 25.51874 | 72.14096 | 34822 ft | 447 kts | 350° |
| 2026-05-08 22:33 | 25.58737 | 72.13310 | 34815 ft | 447 kts | 349° |
| 2026-05-08 22:33 | 25.64895 | 72.12605 | 34814 ft | 445 kts | 349° |
| 2026-05-08 22:34 | 25.71062 | 72.11902 | 34810 ft | 445 kts | 349° |
| 2026-05-08 22:34 | 25.77661 | 72.11163 | 34799 ft | 444 kts | 349° |
| 2026-05-08 22:35 | 25.84468 | 72.10399 | 34800 ft | 443 kts | 349° |
| 2026-05-08 22:35 | 25.91536 | 72.09605 | 34800 ft | 443 kts | 349° |
| 2026-05-08 22:36 | 25.98691 | 72.08799 | 34804 ft | 443 kts | 349° |
| 2026-05-08 22:36 | 26.05449 | 72.08038 | 34807 ft | 443 kts | 349° |
| 2026-05-08 22:37 | 26.12431 | 72.07250 | 34836 ft | 440 kts | 349° |
| 2026-05-08 22:37 | 26.19044 | 72.06503 | 34840 ft | 440 kts | 349° |
| 2026-05-08 22:38 | 26.25751 | 72.05744 | 34843 ft | 439 kts | 349° |
| 2026-05-08 22:38 | 26.31809 | 72.05058 | 34836 ft | 440 kts | 349° |
| 2026-05-08 22:39 | 26.37899 | 72.04368 | 34831 ft | 438 kts | 349° |
| 2026-05-08 22:39 | 26.44097 | 72.03664 | 34823 ft | 438 kts | 349° |
| 2026-05-08 22:40 | 26.51097 | 72.02869 | 34826 ft | 438 kts | 349° |
| 2026-05-08 22:40 | 26.58097 | 72.02073 | 34826 ft | 437 kts | 349° |
| 2026-05-08 22:41 | 26.64142 | 72.01385 | 34828 ft | 436 kts | 349° |
| 2026-05-08 22:41 | 26.71032 | 72.00600 | 34823 ft | 435 kts | 349° |
| 2026-05-08 22:42 | 26.78050 | 71.99798 | 34820 ft | 436 kts | 349° |
| 2026-05-08 22:42 | 26.85052 | 71.98998 | 34826 ft | 434 kts | 349° |
| 2026-05-08 22:43 | 26.92019 | 71.98201 | 34834 ft | 434 kts | 349° |
| 2026-05-08 22:43 | 26.99015 | 71.97399 | 34836 ft | 433 kts | 350° |
| 2026-05-08 22:44 | 27.06046 | 71.96593 | 34832 ft | 432 kts | 349° |
| 2026-05-08 22:44 | 27.12992 | 71.95795 | 34835 ft | 432 kts | 350° |
| 2026-05-08 22:45 | 27.19974 | 71.94992 | 34831 ft | 431 kts | 349° |
| 2026-05-08 22:45 | 27.26933 | 71.94190 | 34828 ft | 431 kts | 349° |
| 2026-05-08 22:46 | 27.33721 | 71.93408 | 34823 ft | 428 kts | 349° |
| 2026-05-08 22:46 | 27.40675 | 71.92605 | 34812 ft | 430 kts | 349° |
| 2026-05-08 22:47 | 27.46598 | 71.91921 | 34813 ft | 430 kts | 349° |
| 2026-05-08 22:47 | 27.52587 | 71.91228 | 34800 ft | 428 kts | 349° |
| 2026-05-08 22:48 | 27.58312 | 71.89774 | 34804 ft | 422 kts | 336° |
| 2026-05-08 22:48 | 27.63907 | 71.86418 | 34802 ft | 418 kts | 323° |
| 2026-05-08 22:49 | 27.68195 | 71.81848 | 34792 ft | 420 kts | 311° |
| 2026-05-08 22:49 | 27.72863 | 71.72929 | 34795 ft | 425 kts | 301° |
| 2026-05-08 22:50 | 27.75678 | 71.66866 | 34794 ft | 424 kts | 301° |
| 2026-05-08 22:50 | 27.78420 | 71.60990 | 34787 ft | 423 kts | 301° |
| 2026-05-08 22:51 | 27.81160 | 71.55130 | 34781 ft | 423 kts | 301° |
| 2026-05-08 22:51 | 27.83930 | 71.49204 | 34779 ft | 421 kts | 301° |
| 2026-05-08 22:52 | 27.86719 | 71.43235 | 34776 ft | 424 kts | 301° |
| 2026-05-08 22:52 | 27.89794 | 71.36301 | 34773 ft | 424 kts | 300° |
| 2026-05-08 22:53 | 27.92805 | 71.29359 | 34785 ft | 426 kts | 299° |
| 2026-05-08 22:53 | 27.95769 | 71.22526 | 34782 ft | 423 kts | 299° |
| 2026-05-08 22:54 | 27.98361 | 71.16553 | 34780 ft | 425 kts | 299° |
| 2026-05-08 22:54 | 28.01191 | 71.10022 | 34776 ft | 424 kts | 299° |
| 2026-05-08 22:55 | 28.03923 | 71.03710 | 34781 ft | 423 kts | 299° |
| 2026-05-08 22:55 | 28.06488 | 70.97776 | 34770 ft | 424 kts | 299° |
| 2026-05-08 22:56 | 28.09074 | 70.91784 | 34762 ft | 423 kts | 299° |
| 2026-05-08 22:56 | 28.11657 | 70.85790 | 34764 ft | 425 kts | 299° |
| 2026-05-08 22:57 | 28.14232 | 70.79806 | 34777 ft | 424 kts | 299° |
| 2026-05-08 22:57 | 28.16922 | 70.73547 | 34787 ft | 425 kts | 299° |
| 2026-05-08 22:58 | 28.19896 | 70.66614 | 34779 ft | 425 kts | 299° |
| 2026-05-08 22:58 | 28.22866 | 70.59676 | 34769 ft | 425 kts | 299° |
| 2026-05-08 22:59 | 28.25771 | 70.52882 | 34772 ft | 425 kts | 299° |
| 2026-05-08 22:59 | 28.28336 | 70.46873 | 34767 ft | 426 kts | 299° |
| 2026-05-08 23:00 | 28.30901 | 70.40852 | 34760 ft | 425 kts | 299° |
| 2026-05-08 23:00 | 28.33745 | 70.34800 | 34756 ft | 423 kts | 306° |
| 2026-05-08 23:01 | 28.37738 | 70.29729 | 34768 ft | 421 kts | 319° |
| 2026-05-08 23:01 | 28.42617 | 70.26102 | 34767 ft | 423 kts | 332° |
| 2026-05-08 23:02 | 28.48213 | 70.23955 | 34776 ft | 430 kts | 342° |
| 2026-05-08 23:02 | 28.54062 | 70.22357 | 34763 ft | 426 kts | 342° |
| 2026-05-08 23:03 | 28.59839 | 70.20754 | 34765 ft | 428 kts | 342° |
| 2026-05-08 23:03 | 28.65603 | 70.19140 | 34770 ft | 427 kts | 342° |
| 2026-05-08 23:04 | 28.71384 | 70.17511 | 34771 ft | 427 kts | 342° |
| 2026-05-08 23:04 | 28.77544 | 70.15769 | 34777 ft | 427 kts | 342° |
| 2026-05-08 23:05 | 28.83728 | 70.14017 | 34777 ft | 428 kts | 342° |
| 2026-05-08 23:05 | 28.89476 | 70.12384 | 34777 ft | 427 kts | 342° |
| 2026-05-08 23:06 | 28.95738 | 70.10604 | 34780 ft | 430 kts | 342° |
| 2026-05-08 23:06 | 29.01542 | 70.08952 | 34771 ft | 427 kts | 342° |
| 2026-05-08 23:07 | 29.07400 | 70.07282 | 34768 ft | 428 kts | 342° |
| 2026-05-08 23:07 | 29.13581 | 70.05518 | 34790 ft | 428 kts | 342° |
| 2026-05-08 23:08 | 29.19356 | 70.03868 | 34812 ft | 425 kts | 342° |
| 2026-05-08 23:08 | 29.25097 | 70.02226 | 34818 ft | 426 kts | 342° |
| 2026-05-08 23:09 | 29.30864 | 70.00575 | 34836 ft | 426 kts | 342° |
| 2026-05-08 23:09 | 29.36712 | 69.98898 | 34866 ft | 426 kts | 342° |
| 2026-05-08 23:10 | 29.42464 | 69.97246 | 34855 ft | 427 kts | 342° |
| 2026-05-08 23:10 | 29.48190 | 69.95601 | 34897 ft | 425 kts | 342° |
| 2026-05-08 23:11 | 29.53931 | 69.93949 | 34915 ft | 426 kts | 342° |
| 2026-05-08 23:11 | 29.59663 | 69.92297 | 34938 ft | 424 kts | 342° |
| 2026-05-08 23:12 | 29.65417 | 69.90637 | 34954 ft | 428 kts | 342° |
| 2026-05-08 23:12 | 29.71153 | 69.88982 | 34993 ft | 424 kts | 342° |
| 2026-05-08 23:13 | 29.76926 | 69.87312 | 35015 ft | 425 kts | 342° |
| 2026-05-08 23:13 | 29.82801 | 69.85613 | 35051 ft | 426 kts | 342° |
| 2026-05-08 23:14 | 29.88640 | 69.83920 | 35087 ft | 425 kts | 342° |
| 2026-05-08 23:14 | 29.94463 | 69.82230 | 35109 ft | 426 kts | 342° |
| 2026-05-08 23:15 | 30.00223 | 69.80557 | 35141 ft | 426 kts | 342° |
| 2026-05-08 23:15 | 30.06078 | 69.78854 | 35147 ft | 425 kts | 342° |
| 2026-05-08 23:16 | 30.11813 | 69.77184 | 35169 ft | 425 kts | 341° |
| 2026-05-08 23:16 | 30.17578 | 69.75504 | 35178 ft | 425 kts | 342° |
| 2026-05-08 23:17 | 30.23281 | 69.73839 | 35195 ft | 424 kts | 342° |
| 2026-05-08 23:17 | 30.29029 | 69.72299 | 35202 ft | 426 kts | 344° |
| 2026-05-08 23:18 | 30.34876 | 69.70894 | 35202 ft | 426 kts | 343° |
| 2026-05-08 23:18 | 30.40671 | 69.69487 | 35199 ft | 427 kts | 343° |
| 2026-05-08 23:19 | 30.46472 | 69.68071 | 35196 ft | 427 kts | 344° |
| 2026-05-08 23:19 | 30.52283 | 69.66647 | 35189 ft | 427 kts | 343° |
| 2026-05-08 23:20 | 30.58103 | 69.65218 | 35197 ft | 427 kts | 344° |
| 2026-05-08 23:20 | 30.63884 | 69.63795 | 35200 ft | 428 kts | 344° |
| 2026-05-08 23:21 | 30.69721 | 69.62357 | 35208 ft | 428 kts | 343° |
| 2026-05-08 23:21 | 30.75789 | 69.60859 | 35219 ft | 428 kts | 343° |
| 2026-05-08 23:22 | 30.81592 | 69.59425 | 35234 ft | 428 kts | 343° |
| 2026-05-08 23:22 | 30.87392 | 69.57990 | 35242 ft | 427 kts | 343° |
| 2026-05-08 23:23 | 30.93466 | 69.56485 | 35250 ft | 428 kts | 343° |
| 2026-05-08 23:23 | 30.99823 | 69.54908 | 35258 ft | 427 kts | 343° |
| 2026-05-08 23:24 | 31.06393 | 69.53276 | 35265 ft | 428 kts | 343° |
| 2026-05-08 23:24 | 31.12705 | 69.51706 | 35285 ft | 429 kts | 343° |
| 2026-05-08 23:25 | 31.19147 | 69.50101 | 35285 ft | 426 kts | 343° |
| 2026-05-08 23:25 | 31.25551 | 69.48503 | 35292 ft | 428 kts | 343° |
| 2026-05-08 23:26 | 31.31522 | 69.47568 | 35266 ft | 435 kts | 354° |
| 2026-05-08 23:26 | 31.37648 | 69.48504 | 35227 ft | 449 kts | 9° |
| 2026-05-08 23:27 | 31.43455 | 69.51444 | 35212 ft | 468 kts | 22° |
| 2026-05-08 23:27 | 31.48999 | 69.55383 | 35208 ft | 468 kts | 23° |
| 2026-05-08 23:28 | 31.54590 | 69.59365 | 35209 ft | 469 kts | 23° |
| 2026-05-08 23:28 | 31.60140 | 69.63310 | 35218 ft | 469 kts | 23° |
| 2026-05-08 23:29 | 31.65748 | 69.67293 | 35207 ft | 468 kts | 23° |
| 2026-05-08 23:29 | 31.71266 | 69.71216 | 35170 ft | 465 kts | 23° |
| 2026-05-08 23:30 | 31.76837 | 69.75177 | 35062 ft | 468 kts | 23° |
| 2026-05-08 23:30 | 31.79620 | 69.77157 | 34751 ft | 468 kts | 23° |
| 2026-05-08 23:30 | 31.82383 | 69.79125 | 34390 ft | 467 kts | 23° |
| 2026-05-08 23:31 | 31.85171 | 69.81113 | 34027 ft | 466 kts | 23° |
| 2026-05-08 23:31 | 31.87928 | 69.83079 | 33663 ft | 465 kts | 23° |
| 2026-05-08 23:31 | 31.90692 | 69.85051 | 33301 ft | 466 kts | 24° |
| 2026-05-08 23:31 | 31.93469 | 69.87034 | 32949 ft | 467 kts | 24° |
| 2026-05-08 23:32 | 31.96241 | 69.89014 | 32612 ft | 467 kts | 24° |
| 2026-05-08 23:32 | 31.99025 | 69.91004 | 32274 ft | 470 kts | 24° |
| 2026-05-08 23:32 | 32.01962 | 69.93105 | 31919 ft | 474 kts | 24° |
| 2026-05-08 23:32 | 32.04812 | 69.95145 | 31580 ft | 475 kts | 25° |
| 2026-05-08 23:33 | 32.07663 | 69.97190 | 31240 ft | 473 kts | 25° |
| 2026-05-08 23:33 | 32.10435 | 69.99181 | 30910 ft | 470 kts | 25° |
| 2026-05-08 23:33 | 32.13379 | 70.01295 | 30581 ft | 468 kts | 25° |
| 2026-05-08 23:33 | 32.16220 | 70.03336 | 30257 ft | 467 kts | 26° |
| 2026-05-08 23:34 | 32.18988 | 70.05325 | 29949 ft | 466 kts | 26° |
| 2026-05-08 23:34 | 32.21753 | 70.07315 | 29635 ft | 465 kts | 26° |
| 2026-05-08 23:34 | 32.24536 | 70.09318 | 29315 ft | 463 kts | 27° |
| 2026-05-08 23:34 | 32.27244 | 70.11269 | 29001 ft | 458 kts | 27° |
| 2026-05-08 23:35 | 32.29934 | 70.13210 | 28683 ft | 450 kts | 27° |
| 2026-05-08 23:35 | 32.32591 | 70.15128 | 28370 ft | 443 kts | 27° |
| 2026-05-08 23:35 | 32.35187 | 70.17003 | 28052 ft | 438 kts | 27° |
| 2026-05-08 23:35 | 32.37799 | 70.18886 | 27738 ft | 438 kts | 26° |
| 2026-05-08 23:36 | 32.40416 | 70.20707 | 27420 ft | 437 kts | 26° |
| 2026-05-08 23:36 | 32.42769 | 70.22334 | 27126 ft | 435 kts | 26° |
| 2026-05-08 23:36 | 32.45377 | 70.24139 | 26805 ft | 431 kts | 26° |
| 2026-05-08 23:36 | 32.47942 | 70.25916 | 26481 ft | 429 kts | 26° |
| 2026-05-08 23:37 | 32.50500 | 70.27692 | 26162 ft | 426 kts | 27° |
| 2026-05-08 23:37 | 32.53049 | 70.29437 | 25836 ft | 422 kts | 24° |
| 2026-05-08 23:37 | 32.55738 | 70.30884 | 25507 ft | 417 kts | 17° |
| 2026-05-08 23:37 | 32.58484 | 70.31883 | 25184 ft | 413 kts | 10° |
| 2026-05-08 23:38 | 32.61267 | 70.32461 | 24860 ft | 408 kts | 4° |
| 2026-05-08 23:38 | 32.64092 | 70.32626 | 24535 ft | 405 kts | 357° |
| 2026-05-08 23:38 | 32.66909 | 70.32375 | 24204 ft | 402 kts | 351° |
| 2026-05-08 23:38 | 32.69613 | 70.31733 | 23890 ft | 399 kts | 344° |
| 2026-05-08 23:39 | 32.72262 | 70.30686 | 23688 ft | 397 kts | 338° |
| 2026-05-08 23:39 | 32.74736 | 70.29295 | 23506 ft | 400 kts | 332° |
| 2026-05-08 23:39 | 32.77145 | 70.27580 | 23324 ft | 399 kts | 329° |
| 2026-05-08 23:39 | 32.79497 | 70.25852 | 23144 ft | 399 kts | 329° |
| 2026-05-08 23:40 | 32.81848 | 70.24134 | 22962 ft | 398 kts | 329° |
| 2026-05-08 23:40 | 32.84215 | 70.22412 | 22782 ft | 397 kts | 330° |
| 2026-05-08 23:40 | 32.86544 | 70.20723 | 22603 ft | 395 kts | 330° |
| 2026-05-08 23:40 | 32.88893 | 70.19023 | 22421 ft | 394 kts | 330° |
| 2026-05-08 23:41 | 32.91247 | 70.17322 | 22235 ft | 394 kts | 330° |
| 2026-05-08 23:41 | 32.93582 | 70.15635 | 22050 ft | 392 kts | 330° |
| 2026-05-08 23:41 | 32.95919 | 70.13947 | 21864 ft | 393 kts | 330° |
| 2026-05-08 23:41 | 32.98231 | 70.12277 | 21681 ft | 392 kts | 329° |
| 2026-05-08 23:42 | 33.00563 | 70.10593 | 21495 ft | 390 kts | 330° |
| 2026-05-08 23:42 | 33.02873 | 70.08923 | 21318 ft | 389 kts | 330° |
| 2026-05-08 23:42 | 33.05200 | 70.07242 | 21131 ft | 389 kts | 330° |
| 2026-05-08 23:42 | 33.07487 | 70.05588 | 20949 ft | 388 kts | 329° |
| 2026-05-08 23:43 | 33.09816 | 70.03952 | 20768 ft | 386 kts | 333° |
| 2026-05-08 23:43 | 33.12206 | 70.02461 | 20603 ft | 386 kts | 333° |
| 2026-05-08 23:43 | 33.14557 | 70.01003 | 20430 ft | 384 kts | 333° |
| 2026-05-08 23:43 | 33.16916 | 69.99533 | 20257 ft | 377 kts | 333° |
| 2026-05-08 23:44 | 33.19221 | 69.98090 | 20077 ft | 365 kts | 333° |
| 2026-05-08 23:44 | 33.21423 | 69.96710 | 19912 ft | 354 kts | 333° |
| 2026-05-08 23:44 | 33.23574 | 69.95358 | 19733 ft | 343 kts | 333° |
| 2026-05-08 23:44 | 33.25632 | 69.94063 | 19558 ft | 333 kts | 333° |
| 2026-05-08 23:45 | 33.27651 | 69.92790 | 19379 ft | 323 kts | 333° |
| 2026-05-08 23:45 | 33.29614 | 69.91550 | 19199 ft | 314 kts | 333° |
| 2026-05-08 23:45 | 33.31520 | 69.90345 | 19033 ft | 310 kts | 333° |
| 2026-05-08 23:45 | 33.33442 | 69.89130 | 18866 ft | 314 kts | 333° |
| 2026-05-08 23:46 | 33.35367 | 69.87912 | 18692 ft | 313 kts | 333° |
| 2026-05-08 23:46 | 33.37307 | 69.86683 | 18519 ft | 311 kts | 333° |
| 2026-05-08 23:46 | 33.39206 | 69.85480 | 18357 ft | 311 kts | 333° |
| 2026-05-08 23:46 | 33.41110 | 69.84272 | 18185 ft | 309 kts | 333° |
| 2026-05-08 23:47 | 33.43003 | 69.83071 | 18024 ft | 309 kts | 333° |
| 2026-05-08 23:47 | 33.44904 | 69.81864 | 17861 ft | 309 kts | 333° |
| 2026-05-08 23:47 | 33.46801 | 69.80660 | 17701 ft | 307 kts | 333° |
| 2026-05-08 23:47 | 33.48682 | 69.79464 | 17541 ft | 307 kts | 333° |
| 2026-05-08 23:48 | 33.50563 | 69.78268 | 17380 ft | 307 kts | 333° |
| 2026-05-08 23:48 | 33.52465 | 69.77059 | 17227 ft | 306 kts | 332° |
| 2026-05-08 23:48 | 33.54355 | 69.75877 | 17078 ft | 307 kts | 333° |
| 2026-05-08 23:48 | 33.56236 | 69.74718 | 16929 ft | 305 kts | 333° |
| 2026-05-08 23:49 | 33.58172 | 69.73523 | 16775 ft | 305 kts | 333° |
| 2026-05-08 23:49 | 33.60326 | 69.72189 | 16602 ft | 303 kts | 333° |
| 2026-05-08 23:49 | 33.62471 | 69.70860 | 16431 ft | 304 kts | 333° |
| 2026-05-08 23:49 | 33.64615 | 69.69530 | 16257 ft | 303 kts | 333° |
| 2026-05-08 23:50 | 33.66803 | 69.68172 | 16080 ft | 303 kts | 333° |
| 2026-05-08 23:50 | 33.69004 | 69.66805 | 15902 ft | 302 kts | 333° |
| 2026-05-08 23:50 | 33.71206 | 69.65437 | 15720 ft | 301 kts | 333° |
| 2026-05-08 23:50 | 33.73385 | 69.64082 | 15539 ft | 300 kts | 333° |
| 2026-05-08 23:51 | 33.75584 | 69.62714 | 15358 ft | 300 kts | 333° |
| 2026-05-08 23:51 | 33.77759 | 69.61359 | 15181 ft | 300 kts | 332° |
| 2026-05-08 23:51 | 33.79940 | 69.60001 | 15008 ft | 299 kts | 332° |
| 2026-05-08 23:51 | 33.82093 | 69.58659 | 14835 ft | 297 kts | 332° |
| 2026-05-08 23:52 | 33.84261 | 69.57307 | 14663 ft | 296 kts | 332° |
| 2026-05-08 23:52 | 33.86418 | 69.55962 | 14545 ft | 295 kts | 332° |
| 2026-05-08 23:52 | 33.88516 | 69.54652 | 14546 ft | 297 kts | 332° |
| 2026-05-08 23:52 | 33.90588 | 69.53359 | 14553 ft | 296 kts | 332° |
| 2026-05-08 23:53 | 33.92459 | 69.52189 | 14566 ft | 297 kts | 332° |
| 2026-05-08 23:53 | 33.94251 | 69.51068 | 14569 ft | 283 kts | 332° |
| 2026-05-08 23:53 | 33.95976 | 69.49989 | 14577 ft | 274 kts | 332° |
| 2026-05-08 23:53 | 33.97662 | 69.48934 | 14579 ft | 272 kts | 332° |
| 2026-05-08 23:54 | 33.99343 | 69.47881 | 14579 ft | 271 kts | 332° |
| 2026-05-08 23:54 | 34.01010 | 69.46838 | 14576 ft | 271 kts | 332° |
| 2026-05-08 23:54 | 34.02680 | 69.45791 | 14568 ft | 270 kts | 332° |
| 2026-05-08 23:55 | 34.06034 | 69.43687 | 14555 ft | 271 kts | 332° |
| 2026-05-08 23:55 | 34.07706 | 69.42638 | 14538 ft | 271 kts | 332° |
| 2026-05-08 23:55 | 34.09383 | 69.41704 | 14541 ft | 263 kts | 338° |
| 2026-05-08 23:55 | 34.11091 | 69.41066 | 14523 ft | 251 kts | 346° |
| 2026-05-08 23:56 | 34.12817 | 69.40713 | 14529 ft | 249 kts | 353° |
| 2026-05-08 23:56 | 34.14539 | 69.40632 | 14502 ft | 251 kts | 0° |
| 2026-05-08 23:56 | 34.16285 | 69.40816 | 14557 ft | 252 kts | 6° |
| 2026-05-08 23:56 | 34.18049 | 69.41099 | 14442 ft | 256 kts | 6° |
| 2026-05-08 23:57 | 34.19794 | 69.41369 | 14221 ft | 253 kts | 5° |
| 2026-05-08 23:57 | 34.21518 | 69.41627 | 14004 ft | 244 kts | 5° |
| 2026-05-08 23:57 | 34.23164 | 69.41872 | 13770 ft | 235 kts | 5° |
| 2026-05-08 23:57 | 34.24752 | 69.42107 | 13538 ft | 226 kts | 4° |
| 2026-05-08 23:58 | 34.26284 | 69.42333 | 13296 ft | 217 kts | 5° |
| 2026-05-08 23:58 | 34.27771 | 69.42552 | 13053 ft | 210 kts | 5° |
| 2026-05-08 23:58 | 34.29215 | 69.42765 | 12817 ft | 212 kts | 5° |
| 2026-05-08 23:58 | 34.30694 | 69.42985 | 12572 ft | 212 kts | 5° |
| 2026-05-08 23:59 | 34.32146 | 69.43200 | 12325 ft | 210 kts | 5° |
| 2026-05-08 23:59 | 34.33589 | 69.43413 | 12083 ft | 210 kts | 6° |
| 2026-05-08 23:59 | 34.35044 | 69.43630 | 11839 ft | 210 kts | 6° |
| 2026-05-08 23:59 | 34.36490 | 69.43692 | 11575 ft | 207 kts | 348° |
| 2026-05-09 00:00 | 34.37886 | 69.43265 | 11345 ft | 208 kts | 344° |
| 2026-05-09 00:00 | 34.39260 | 69.42777 | 11103 ft | 208 kts | 343° |
| 2026-05-09 00:00 | 34.40657 | 69.42278 | 10853 ft | 206 kts | 343° |
| 2026-05-09 00:00 | 34.42028 | 69.41791 | 10602 ft | 205 kts | 343° |
| 2026-05-09 00:01 | 34.43406 | 69.41302 | 10371 ft | 206 kts | 343° |
| 2026-05-09 00:01 | 34.44713 | 69.40842 | 10263 ft | 187 kts | 343° |
| 2026-05-09 00:01 | 34.45958 | 69.40408 | 10243 ft | 184 kts | 343° |
| 2026-05-09 00:01 | 34.47174 | 69.39983 | 10228 ft | 179 kts | 344° |
| 2026-05-09 00:02 | 34.48367 | 69.39575 | 10175 ft | 179 kts | 344° |
| 2026-05-09 00:02 | 34.49574 | 69.39150 | 10039 ft | 182 kts | 341° |
| 2026-05-09 00:02 | 34.50732 | 69.38500 | 9808 ft | 182 kts | 330° |
| 2026-05-09 00:02 | 34.51751 | 69.37620 | 9607 ft | 181 kts | 319° |
| 2026-05-09 00:03 | 34.52544 | 69.36447 | 9379 ft | 182 kts | 300° |
| 2026-05-09 00:03 | 34.53090 | 69.35051 | 9049 ft | 183 kts | 290° |
| 2026-05-09 00:03 | 34.53480 | 69.33601 | 8650 ft | 182 kts | 285° |
| 2026-05-09 00:03 | 34.53803 | 69.32136 | 8218 ft | 178 kts | 287° |
| 2026-05-09 00:04 | 34.54156 | 69.30698 | 7744 ft | 175 kts | 286° |
| 2026-05-09 00:04 | 34.54490 | 69.29282 | 7335 ft | 175 kts | 288° |
| 2026-05-09 00:04 | 34.54868 | 69.27884 | 6943 ft | 175 kts | 289° |
| 2026-05-09 00:04 | 34.55228 | 69.26479 | 6564 ft | 175 kts | 288° |
| 2026-05-09 00:05 | 34.55591 | 69.25080 | 6250 ft | 174 kts | 288° |
| 2026-05-09 00:05 | 34.55941 | 69.23708 | 6019 ft | 169 kts | 288° |
| 2026-05-09 00:05 | 34.56292 | 69.22371 | 5885 ft | 154 kts | 288° |
| 2026-05-09 00:05 | 34.56545 | 69.21394 | 5888 ft | 89 kts | 287° |
| 2026-05-09 00:06 | 34.56675 | 69.20887 | 5888 ft | 52 kts | 288° |
| 2026-05-09 00:06 | 34.56770 | 69.20521 | 5888 ft | 27 kts | 287° |
| 2026-05-09 00:06 | 34.56811 | 69.20354 | 5889 ft | 12 kts | 285° |
| 2026-05-09 00:06 | 34.56786 | 69.20277 | 5889 ft | 12 kts | 207° |
| 2026-05-09 00:07 | 34.56700 | 69.20239 | 5889 ft | 12 kts | 197° |
| 2026-05-09 00:07 | 34.56631 | 69.20214 | 5890 ft | 8 kts | 192° |
| 2026-05-09 00:07 | 34.56590 | 69.20239 | 5890 ft | 7 kts | 123° |
| 2026-05-09 00:07 | 34.56560 | 69.20317 | 5891 ft | 12 kts | 112° |
| 2026-05-09 00:08 | 34.56521 | 69.20438 | 5889 ft | 17 kts | 111° |
| 2026-05-09 00:08 | 34.56471 | 69.20592 | 5889 ft | 20 kts | 111° |
| 2026-05-09 00:08 | 34.56417 | 69.20760 | 5889 ft | 21 kts | 111° |
| 2026-05-09 00:08 | 34.56368 | 69.20911 | 5890 ft | 16 kts | 111° |
| 2026-05-09 00:09 | 34.56345 | 69.20981 | 5890 ft | 6 kts | 112° |
| 2026-05-09 00:09 | 34.56314 | 69.21005 | 5890 ft | 6 kts | 180° |
| 2026-05-09 00:09 | 34.56278 | 69.20995 | 5891 ft | 3 kts | 198° |
| 2026-05-09 00:09 | 34.56260 | 69.20988 | 5891 ft | 2 kts | 199° |